sensor_id;sensor_type;location;lat;lon;timestamp;P1;durP1;ratioP1;P2;durP2;ratioP2
65035;SDS011;51603;49.300;8.880;2023-06-22T00:01:18;7.30;;;6.70;;
65035;SDS011;51603;49.300;8.880;2023-06-22T00:03:44;7.40;;;6.70;;
65035;SDS011;51603;49.300;8.880;2023-06-22T00:06:10;9.80;;;7.63;;
65035;SDS011;51603;49.300;8.880;2023-06-22T00:08:35;8.83;;;8.03;;
65035;SDS011;51603;49.300;8.880;2023-06-22T00:11:01;8.73;;;7.83;;
65035;SDS011;51603;49.300;8.880;2023-06-22T00:13:26;7.73;;;7.13;;
65035;SDS011;51603;49.300;8.880;2023-06-22T00:15:52;7.83;;;7.17;;
65035;SDS011;51603;49.300;8.880;2023-06-22T00:18:17;7.63;;;6.83;;
65035;SDS011;51603;49.300;8.880;2023-06-22T00:20:43;8.00;;;7.23;;
65035;SDS011;51603;49.300;8.880;2023-06-22T00:23:10;7.37;;;6.60;;
65035;SDS011;51603;49.300;8.880;2023-06-22T00:25:37;8.03;;;7.30;;
65035;SDS011;51603;49.300;8.880;2023-06-22T00:28:05;7.23;;;6.40;;
65035;SDS011;51603;49.300;8.880;2023-06-22T00:30:31;8.97;;;7.70;;
65035;SDS011;51603;49.300;8.880;2023-06-22T00:32:57;7.97;;;7.07;;
65035;SDS011;51603;49.300;8.880;2023-06-22T00:35:23;7.50;;;6.90;;
65035;SDS011;51603;49.300;8.880;2023-06-22T00:37:54;7.00;;;6.40;;
65035;SDS011;51603;49.300;8.880;2023-06-22T00:40:26;9.80;;;6.73;;
65035;SDS011;51603;49.300;8.880;2023-06-22T00:42:53;7.27;;;6.57;;
65035;SDS011;51603;49.300;8.880;2023-06-22T00:45:18;7.00;;;6.40;;
65035;SDS011;51603;49.300;8.880;2023-06-22T00:47:44;7.70;;;6.53;;
65035;SDS011;51603;49.300;8.880;2023-06-22T00:50:10;8.80;;;6.63;;
65035;SDS011;51603;49.300;8.880;2023-06-22T00:52:46;7.90;;;7.20;;
65035;SDS011;51603;49.300;8.880;2023-06-22T00:55:21;7.73;;;6.40;;
65035;SDS011;51603;49.300;8.880;2023-06-22T00:57:47;8.10;;;7.30;;
65035;SDS011;51603;49.300;8.880;2023-06-22T01:00:14;6.97;;;6.30;;
65035;SDS011;51603;49.300;8.880;2023-06-22T01:02:44;9.43;;;5.70;;
65035;SDS011;51603;49.300;8.880;2023-06-22T01:05:11;6.47;;;5.87;;
65035;SDS011;51603;49.300;8.880;2023-06-22T01:07:43;9.00;;;7.03;;
65035;SDS011;51603;49.300;8.880;2023-06-22T01:10:31;8.00;;;6.57;;
65035;SDS011;51603;49.300;8.880;2023-06-22T01:13:04;9.80;;;6.83;;
65035;SDS011;51603;49.300;8.880;2023-06-22T01:15:37;9.70;;;7.40;;
65035;SDS011;51603;49.300;8.880;2023-06-22T01:18:09;11.30;;;6.77;;
65035;SDS011;51603;49.300;8.880;2023-06-22T01:20:36;8.43;;;7.67;;
65035;SDS011;51603;49.300;8.880;2023-06-22T01:23:11;9.33;;;8.37;;
65035;SDS011;51603;49.300;8.880;2023-06-22T01:25:54;7.93;;;7.10;;
65035;SDS011;51603;49.300;8.880;2023-06-22T01:29:03;9.37;;;8.57;;
65035;SDS011;51603;49.300;8.880;2023-06-22T01:31:24;8.53;;;7.70;;
65035;SDS011;51603;49.300;8.880;2023-06-22T01:33:55;8.80;;;8.00;;
65035;SDS011;51603;49.300;8.880;2023-06-22T01:36:24;9.90;;;8.90;;
65035;SDS011;51603;49.300;8.880;2023-06-22T01:38:50;10.23;;;8.80;;
65035;SDS011;51603;49.300;8.880;2023-06-22T01:41:17;8.10;;;7.03;;
65035;SDS011;51603;49.300;8.880;2023-06-22T01:43:44;8.30;;;7.50;;
65035;SDS011;51603;49.300;8.880;2023-06-22T01:46:10;16.30;;;7.70;;
65035;SDS011;51603;49.300;8.880;2023-06-22T01:48:37;10.07;;;9.13;;
65035;SDS011;51603;49.300;8.880;2023-06-22T01:51:04;9.30;;;8.40;;
65035;SDS011;51603;49.300;8.880;2023-06-22T01:53:30;11.67;;;8.50;;
65035;SDS011;51603;49.300;8.880;2023-06-22T01:55:56;9.07;;;8.27;;
65035;SDS011;51603;49.300;8.880;2023-06-22T01:58:23;9.97;;;9.07;;
65035;SDS011;51603;49.300;8.880;2023-06-22T02:00:53;10.10;;;9.23;;
65035;SDS011;51603;49.300;8.880;2023-06-22T02:03:34;11.87;;;8.93;;
65035;SDS011;51603;49.300;8.880;2023-06-22T02:06:15;9.70;;;8.77;;
65035;SDS011;51603;49.300;8.880;2023-06-22T02:08:49;10.47;;;9.47;;
65035;SDS011;51603;49.300;8.880;2023-06-22T02:11:18;12.10;;;9.97;;
65035;SDS011;51603;49.300;8.880;2023-06-22T02:13:46;10.30;;;9.40;;
65035;SDS011;51603;49.300;8.880;2023-06-22T02:16:13;8.37;;;7.63;;
65035;SDS011;51603;49.300;8.880;2023-06-22T02:18:39;10.13;;;9.20;;
65035;SDS011;51603;49.300;8.880;2023-06-22T02:21:11;9.97;;;9.00;;
65035;SDS011;51603;49.300;8.880;2023-06-22T02:23:37;10.57;;;8.40;;
65035;SDS011;51603;49.300;8.880;2023-06-22T02:26:02;9.67;;;8.77;;
65035;SDS011;51603;49.300;8.880;2023-06-22T02:28:29;8.83;;;8.03;;
65035;SDS011;51603;49.300;8.880;2023-06-22T02:30:54;9.87;;;8.90;;
65035;SDS011;51603;49.300;8.880;2023-06-22T02:33:20;9.03;;;8.23;;
65035;SDS011;51603;49.300;8.880;2023-06-22T02:35:46;9.70;;;8.90;;
65035;SDS011;51603;49.300;8.880;2023-06-22T02:38:14;9.40;;;8.60;;
65035;SDS011;51603;49.300;8.880;2023-06-22T02:40:39;9.13;;;8.37;;
65035;SDS011;51603;49.300;8.880;2023-06-22T02:43:05;10.00;;;9.10;;
65035;SDS011;51603;49.300;8.880;2023-06-22T02:45:30;9.90;;;8.97;;
65035;SDS011;51603;49.300;8.880;2023-06-22T02:47:56;9.67;;;8.67;;
65035;SDS011;51603;49.300;8.880;2023-06-22T02:50:22;9.90;;;9.10;;
65035;SDS011;51603;49.300;8.880;2023-06-22T02:52:48;9.10;;;8.27;;
65035;SDS011;51603;49.300;8.880;2023-06-22T02:55:13;9.40;;;8.67;;
65035;SDS011;51603;49.300;8.880;2023-06-22T02:57:39;8.77;;;8.00;;
65035;SDS011;51603;49.300;8.880;2023-06-22T03:00:08;9.50;;;8.70;;
65035;SDS011;51603;49.300;8.880;2023-06-22T03:02:42;9.70;;;7.83;;
65035;SDS011;51603;49.300;8.880;2023-06-22T03:05:09;9.03;;;8.10;;
65035;SDS011;51603;49.300;8.880;2023-06-22T03:07:38;9.30;;;8.40;;
65035;SDS011;51603;49.300;8.880;2023-06-22T03:10:05;9.60;;;8.80;;
65035;SDS011;51603;49.300;8.880;2023-06-22T03:12:31;10.30;;;9.47;;
65035;SDS011;51603;49.300;8.880;2023-06-22T03:14:56;9.70;;;8.80;;
65035;SDS011;51603;49.300;8.880;2023-06-22T03:17:23;9.80;;;9.00;;
65035;SDS011;51603;49.300;8.880;2023-06-22T03:19:48;8.83;;;8.13;;
65035;SDS011;51603;49.300;8.880;2023-06-22T03:22:14;9.93;;;8.93;;
65035;SDS011;51603;49.300;8.880;2023-06-22T03:24:40;10.57;;;9.00;;
65035;SDS011;51603;49.300;8.880;2023-06-22T03:27:05;8.87;;;8.07;;
65035;SDS011;51603;49.300;8.880;2023-06-22T03:29:31;9.20;;;8.30;;
65035;SDS011;51603;49.300;8.880;2023-06-22T03:31:57;11.47;;;8.83;;
65035;SDS011;51603;49.300;8.880;2023-06-22T03:34:23;11.20;;;10.10;;
65035;SDS011;51603;49.300;8.880;2023-06-22T03:36:48;11.33;;;8.83;;
65035;SDS011;51603;49.300;8.880;2023-06-22T03:39:14;10.83;;;9.83;;
65035;SDS011;51603;49.300;8.880;2023-06-22T03:41:39;10.27;;;9.37;;
65035;SDS011;51603;49.300;8.880;2023-06-22T03:44:05;11.13;;;10.03;;
65035;SDS011;51603;49.300;8.880;2023-06-22T03:46:30;9.13;;;8.37;;
65035;SDS011;51603;49.300;8.880;2023-06-22T03:48:56;10.47;;;9.53;;
65035;SDS011;51603;49.300;8.880;2023-06-22T03:51:21;9.00;;;8.30;;
65035;SDS011;51603;49.300;8.880;2023-06-22T03:53:47;9.70;;;8.80;;
65035;SDS011;51603;49.300;8.880;2023-06-22T03:56:13;10.73;;;9.83;;
65035;SDS011;51603;49.300;8.880;2023-06-22T03:58:45;10.30;;;9.50;;
65035;SDS011;51603;49.300;8.880;2023-06-22T04:01:10;9.53;;;8.63;;
65035;SDS011;51603;49.300;8.880;2023-06-22T04:03:36;11.23;;;10.23;;
65035;SDS011;51603;49.300;8.880;2023-06-22T04:06:02;10.07;;;9.17;;
65035;SDS011;51603;49.300;8.880;2023-06-22T04:08:28;10.53;;;9.63;;
65035;SDS011;51603;49.300;8.880;2023-06-22T04:10:54;11.53;;;10.53;;
65035;SDS011;51603;49.300;8.880;2023-06-22T04:13:19;10.80;;;9.87;;
65035;SDS011;51603;49.300;8.880;2023-06-22T04:15:45;10.27;;;9.47;;
65035;SDS011;51603;49.300;8.880;2023-06-22T04:18:10;12.37;;;11.27;;
65035;SDS011;51603;49.300;8.880;2023-06-22T04:20:36;11.60;;;10.50;;
65035;SDS011;51603;49.300;8.880;2023-06-22T04:23:02;12.13;;;11.13;;
65035;SDS011;51603;49.300;8.880;2023-06-22T04:25:27;10.00;;;9.10;;
65035;SDS011;51603;49.300;8.880;2023-06-22T04:27:53;12.20;;;11.00;;
65035;SDS011;51603;49.300;8.880;2023-06-22T04:30:18;11.80;;;10.80;;
65035;SDS011;51603;49.300;8.880;2023-06-22T04:32:44;11.87;;;10.77;;
65035;SDS011;51603;49.300;8.880;2023-06-22T04:35:10;12.27;;;11.13;;
65035;SDS011;51603;49.300;8.880;2023-06-22T04:37:36;11.20;;;10.20;;
65035;SDS011;51603;49.300;8.880;2023-06-22T04:40:03;16.13;;;11.60;;
65035;SDS011;51603;49.300;8.880;2023-06-22T04:42:30;12.13;;;11.03;;
65035;SDS011;51603;49.300;8.880;2023-06-22T04:44:57;12.60;;;11.30;;
65035;SDS011;51603;49.300;8.880;2023-06-22T04:47:22;12.60;;;11.30;;
65035;SDS011;51603;49.300;8.880;2023-06-22T04:49:48;13.00;;;11.60;;
65035;SDS011;51603;49.300;8.880;2023-06-22T04:52:13;13.17;;;11.63;;
65035;SDS011;51603;49.300;8.880;2023-06-22T04:54:42;12.40;;;11.30;;
65035;SDS011;51603;49.300;8.880;2023-06-22T04:57:20;11.77;;;10.70;;
65035;SDS011;51603;49.300;8.880;2023-06-22T04:59:46;12.63;;;11.60;;
65035;SDS011;51603;49.300;8.880;2023-06-22T05:02:11;12.40;;;11.20;;
65035;SDS011;51603;49.300;8.880;2023-06-22T05:04:37;11.80;;;10.80;;
65035;SDS011;51603;49.300;8.880;2023-06-22T05:07:05;12.70;;;11.47;;
65035;SDS011;51603;49.300;8.880;2023-06-22T05:09:31;12.80;;;11.70;;
65035;SDS011;51603;49.300;8.880;2023-06-22T05:11:58;14.50;;;13.10;;
65035;SDS011;51603;49.300;8.880;2023-06-22T05:14:27;12.50;;;11.40;;
65035;SDS011;51603;49.300;8.880;2023-06-22T05:16:52;15.43;;;13.93;;
65035;SDS011;51603;49.300;8.880;2023-06-22T05:19:18;13.67;;;12.27;;
65035;SDS011;51603;49.300;8.880;2023-06-22T05:21:43;13.83;;;12.20;;
65035;SDS011;51603;49.300;8.880;2023-06-22T05:24:09;13.57;;;12.37;;
65035;SDS011;51603;49.300;8.880;2023-06-22T05:26:35;14.37;;;12.90;;
65035;SDS011;51603;49.300;8.880;2023-06-22T05:29:01;16.80;;;14.83;;
65035;SDS011;51603;49.300;8.880;2023-06-22T05:31:27;15.10;;;12.30;;
65035;SDS011;51603;49.300;8.880;2023-06-22T05:33:54;12.30;;;11.30;;
65035;SDS011;51603;49.300;8.880;2023-06-22T05:36:20;13.50;;;12.20;;
65035;SDS011;51603;49.300;8.880;2023-06-22T05:38:48;14.60;;;13.30;;
65035;SDS011;51603;49.300;8.880;2023-06-22T05:41:14;13.33;;;12.13;;
65035;SDS011;51603;49.300;8.880;2023-06-22T05:43:40;14.23;;;13.03;;
65035;SDS011;51603;49.300;8.880;2023-06-22T05:46:05;13.90;;;12.47;;
65035;SDS011;51603;49.300;8.880;2023-06-22T05:48:31;14.13;;;12.67;;
65035;SDS011;51603;49.300;8.880;2023-06-22T05:50:57;13.00;;;11.80;;
65035;SDS011;51603;49.300;8.880;2023-06-22T05:53:22;12.73;;;11.43;;
65035;SDS011;51603;49.300;8.880;2023-06-22T05:55:48;13.67;;;12.47;;
65035;SDS011;51603;49.300;8.880;2023-06-22T05:58:14;14.70;;;13.20;;
65035;SDS011;51603;49.300;8.880;2023-06-22T06:00:40;11.73;;;10.83;;
65035;SDS011;51603;49.300;8.880;2023-06-22T06:03:06;15.17;;;13.87;;
65035;SDS011;51603;49.300;8.880;2023-06-22T06:05:33;14.53;;;12.87;;
65035;SDS011;51603;49.300;8.880;2023-06-22T06:08:02;13.20;;;12.10;;
65035;SDS011;51603;49.300;8.880;2023-06-22T06:10:32;13.53;;;11.70;;
65035;SDS011;51603;49.300;8.880;2023-06-22T06:12:58;13.87;;;12.67;;
65035;SDS011;51603;49.300;8.880;2023-06-22T06:15:27;13.53;;;12.37;;
65035;SDS011;51603;49.300;8.880;2023-06-22T06:17:53;14.10;;;12.70;;
65035;SDS011;51603;49.300;8.880;2023-06-22T06:20:20;14.83;;;13.43;;
65035;SDS011;51603;49.300;8.880;2023-06-22T06:22:47;12.13;;;11.23;;
65035;SDS011;51603;49.300;8.880;2023-06-22T06:25:13;12.63;;;11.53;;
65035;SDS011;51603;49.300;8.880;2023-06-22T06:27:47;14.27;;;12.90;;
65035;SDS011;51603;49.300;8.880;2023-06-22T06:30:14;13.47;;;12.37;;
65035;SDS011;51603;49.300;8.880;2023-06-22T06:32:41;13.43;;;12.30;;
65035;SDS011;51603;49.300;8.880;2023-06-22T06:35:07;12.87;;;11.70;;
65035;SDS011;51603;49.300;8.880;2023-06-22T06:37:35;11.93;;;10.90;;
65035;SDS011;51603;49.300;8.880;2023-06-22T06:40:04;11.30;;;10.37;;
65035;SDS011;51603;49.300;8.880;2023-06-22T06:42:33;13.20;;;12.00;;
65035;SDS011;51603;49.300;8.880;2023-06-22T06:44:58;12.27;;;11.13;;
65035;SDS011;51603;49.300;8.880;2023-06-22T06:47:24;12.17;;;11.07;;
65035;SDS011;51603;49.300;8.880;2023-06-22T06:49:49;13.33;;;12.10;;
65035;SDS011;51603;49.300;8.880;2023-06-22T06:52:15;11.50;;;10.33;;
65035;SDS011;51603;49.300;8.880;2023-06-22T06:54:40;12.27;;;11.07;;
65035;SDS011;51603;49.300;8.880;2023-06-22T06:57:07;10.90;;;10.00;;
65035;SDS011;51603;49.300;8.880;2023-06-22T06:59:35;11.00;;;10.00;;
65035;SDS011;51603;49.300;8.880;2023-06-22T07:02:01;11.47;;;10.40;;
65035;SDS011;51603;49.300;8.880;2023-06-22T07:04:26;10.87;;;9.90;;
65035;SDS011;51603;49.300;8.880;2023-06-22T07:06:52;10.77;;;8.90;;
65035;SDS011;51603;49.300;8.880;2023-06-22T07:09:17;10.97;;;10.07;;
65035;SDS011;51603;49.300;8.880;2023-06-22T07:11:43;11.00;;;9.90;;
65035;SDS011;51603;49.300;8.880;2023-06-22T07:14:09;10.80;;;9.90;;
65035;SDS011;51603;49.300;8.880;2023-06-22T07:16:34;9.60;;;8.80;;
65035;SDS011;51603;49.300;8.880;2023-06-22T07:19:00;10.27;;;9.33;;
65035;SDS011;51603;49.300;8.880;2023-06-22T07:21:25;10.60;;;9.70;;
65035;SDS011;51603;49.300;8.880;2023-06-22T07:23:51;10.63;;;9.63;;
65035;SDS011;51603;49.300;8.880;2023-06-22T07:26:17;12.47;;;10.00;;
65035;SDS011;51603;49.300;8.880;2023-06-22T07:28:42;8.53;;;7.73;;
65035;SDS011;51603;49.300;8.880;2023-06-22T07:31:08;9.30;;;8.40;;
65035;SDS011;51603;49.300;8.880;2023-06-22T07:33:33;10.30;;;8.80;;
65035;SDS011;51603;49.300;8.880;2023-06-22T07:35:59;10.00;;;7.90;;
65035;SDS011;51603;49.300;8.880;2023-06-22T07:38:25;8.20;;;7.50;;
65035;SDS011;51603;49.300;8.880;2023-06-22T07:40:50;8.17;;;7.57;;
65035;SDS011;51603;49.300;8.880;2023-06-22T07:43:18;10.27;;;7.80;;
65035;SDS011;51603;49.300;8.880;2023-06-22T07:45:49;8.37;;;7.57;;
65035;SDS011;51603;49.300;8.880;2023-06-22T07:48:21;11.17;;;7.70;;
65035;SDS011;51603;49.300;8.880;2023-06-22T07:50:47;7.93;;;7.23;;
65035;SDS011;51603;49.300;8.880;2023-06-22T07:53:14;8.50;;;7.77;;
65035;SDS011;51603;49.300;8.880;2023-06-22T07:55:39;8.50;;;7.40;;
65035;SDS011;51603;49.300;8.880;2023-06-22T07:58:05;8.10;;;7.37;;
65035;SDS011;51603;49.300;8.880;2023-06-22T08:00:30;8.30;;;7.30;;
65035;SDS011;51603;49.300;8.880;2023-06-22T08:02:58;7.73;;;6.83;;
65035;SDS011;51603;49.300;8.880;2023-06-22T08:05:23;7.70;;;7.00;;
65035;SDS011;51603;49.300;8.880;2023-06-22T08:07:49;8.60;;;7.87;;
65035;SDS011;51603;49.300;8.880;2023-06-22T08:10:15;6.83;;;6.23;;
65035;SDS011;51603;49.300;8.880;2023-06-22T08:12:41;8.03;;;6.93;;
65035;SDS011;51603;49.300;8.880;2023-06-22T08:15:07;11.37;;;7.60;;
65035;SDS011;51603;49.300;8.880;2023-06-22T08:17:34;7.30;;;6.70;;
65035;SDS011;51603;49.300;8.880;2023-06-22T08:20:01;11.20;;;7.00;;
65035;SDS011;51603;49.300;8.880;2023-06-22T08:22:30;7.37;;;6.67;;
65035;SDS011;51603;49.300;8.880;2023-06-22T08:24:58;7.33;;;6.60;;
65035;SDS011;51603;49.300;8.880;2023-06-22T08:27:23;8.90;;;6.90;;
65035;SDS011;51603;49.300;8.880;2023-06-22T08:29:49;6.97;;;6.30;;
65035;SDS011;51603;49.300;8.880;2023-06-22T08:32:15;6.80;;;6.10;;
65035;SDS011;51603;49.300;8.880;2023-06-22T08:34:41;7.43;;;6.73;;
65035;SDS011;51603;49.300;8.880;2023-06-22T08:37:10;7.17;;;6.57;;
65035;SDS011;51603;49.300;8.880;2023-06-22T08:39:36;7.03;;;6.33;;
65035;SDS011;51603;49.300;8.880;2023-06-22T08:42:02;6.50;;;5.90;;
65035;SDS011;51603;49.300;8.880;2023-06-22T08:44:27;7.07;;;6.37;;
65035;SDS011;51603;49.300;8.880;2023-06-22T08:46:53;8.47;;;6.30;;
65035;SDS011;51603;49.300;8.880;2023-06-22T08:49:19;8.57;;;6.73;;
65035;SDS011;51603;49.300;8.880;2023-06-22T08:51:44;6.60;;;6.03;;
65035;SDS011;51603;49.300;8.880;2023-06-22T08:54:12;6.47;;;5.90;;
65035;SDS011;51603;49.300;8.880;2023-06-22T08:56:38;8.67;;;6.47;;
65035;SDS011;51603;49.300;8.880;2023-06-22T08:59:04;6.83;;;6.13;;
65035;SDS011;51603;49.300;8.880;2023-06-22T09:01:32;9.50;;;6.30;;
65035;SDS011;51603;49.300;8.880;2023-06-22T09:03:58;7.57;;;6.77;;
65035;SDS011;51603;49.300;8.880;2023-06-22T09:06:24;6.30;;;5.70;;
65035;SDS011;51603;49.300;8.880;2023-06-22T09:08:50;7.20;;;6.50;;
65035;SDS011;51603;49.300;8.880;2023-06-22T09:11:16;9.03;;;6.10;;
65035;SDS011;51603;49.300;8.880;2023-06-22T09:13:41;6.53;;;5.40;;
65035;SDS011;51603;49.300;8.880;2023-06-22T09:16:07;6.13;;;5.53;;
65035;SDS011;51603;49.300;8.880;2023-06-22T09:18:35;6.30;;;5.03;;
65035;SDS011;51603;49.300;8.880;2023-06-22T09:21:01;7.47;;;5.63;;
65035;SDS011;51603;49.300;8.880;2023-06-22T09:23:27;6.30;;;5.57;;
65035;SDS011;51603;49.300;8.880;2023-06-22T09:25:52;8.07;;;6.77;;
65035;SDS011;51603;49.300;8.880;2023-06-22T09:28:18;5.90;;;5.40;;
65035;SDS011;51603;49.300;8.880;2023-06-22T09:30:44;7.23;;;6.53;;
65035;SDS011;51603;49.300;8.880;2023-06-22T09:33:09;7.00;;;5.00;;
65035;SDS011;51603;49.300;8.880;2023-06-22T09:35:35;9.47;;;6.13;;
65035;SDS011;51603;49.300;8.880;2023-06-22T09:38:01;8.70;;;6.10;;
65035;SDS011;51603;49.300;8.880;2023-06-22T09:40:26;6.87;;;5.60;;
65035;SDS011;51603;49.300;8.880;2023-06-22T09:42:52;7.93;;;6.53;;
65035;SDS011;51603;49.300;8.880;2023-06-22T09:45:17;6.67;;;5.60;;
65035;SDS011;51603;49.300;8.880;2023-06-22T09:47:43;6.83;;;6.20;;
65035;SDS011;51603;49.300;8.880;2023-06-22T09:50:08;7.57;;;5.60;;
65035;SDS011;51603;49.300;8.880;2023-06-22T09:52:34;6.33;;;5.53;;
65035;SDS011;51603;49.300;8.880;2023-06-22T09:55:00;9.50;;;5.60;;
65035;SDS011;51603;49.300;8.880;2023-06-22T09:57:25;6.27;;;5.67;;
65035;SDS011;51603;49.300;8.880;2023-06-22T09:59:51;6.53;;;5.93;;
65035;SDS011;51603;49.300;8.880;2023-06-22T10:02:16;7.60;;;5.77;;
65035;SDS011;51603;49.300;8.880;2023-06-22T10:04:42;6.70;;;6.00;;
65035;SDS011;51603;49.300;8.880;2023-06-22T10:07:08;6.03;;;5.33;;
65035;SDS011;51603;49.300;8.880;2023-06-22T10:09:33;9.60;;;5.43;;
65035;SDS011;51603;49.300;8.880;2023-06-22T10:11:59;8.60;;;5.57;;
65035;SDS011;51603;49.300;8.880;2023-06-22T10:14:24;7.73;;;5.50;;
65035;SDS011;51603;49.300;8.880;2023-06-22T10:16:52;8.43;;;6.47;;
65035;SDS011;51603;49.300;8.880;2023-06-22T10:19:17;9.50;;;5.43;;
65035;SDS011;51603;49.300;8.880;2023-06-22T10:21:43;7.03;;;5.30;;
65035;SDS011;51603;49.300;8.880;2023-06-22T10:24:09;9.80;;;6.17;;
65035;SDS011;51603;49.300;8.880;2023-06-22T10:26:34;10.30;;;5.40;;
65035;SDS011;51603;49.300;8.880;2023-06-22T10:29:01;7.60;;;5.73;;
65035;SDS011;51603;49.300;8.880;2023-06-22T10:31:27;6.30;;;5.63;;
65035;SDS011;51603;49.300;8.880;2023-06-22T10:33:54;6.70;;;5.70;;
65035;SDS011;51603;49.300;8.880;2023-06-22T10:36:20;10.13;;;6.33;;
65035;SDS011;51603;49.300;8.880;2023-06-22T10:38:47;7.50;;;6.33;;
65035;SDS011;51603;49.300;8.880;2023-06-22T10:41:13;9.00;;;6.20;;
65035;SDS011;51603;49.300;8.880;2023-06-22T10:43:38;7.20;;;5.30;;
65035;SDS011;51603;49.300;8.880;2023-06-22T10:46:04;7.37;;;5.23;;
65035;SDS011;51603;49.300;8.880;2023-06-22T10:48:31;9.27;;;5.10;;
65035;SDS011;51603;49.300;8.880;2023-06-22T10:50:56;9.80;;;6.10;;
65035;SDS011;51603;49.300;8.880;2023-06-22T10:53:22;6.67;;;4.97;;
65035;SDS011;51603;49.300;8.880;2023-06-22T10:55:47;9.90;;;5.80;;
65035;SDS011;51603;49.300;8.880;2023-06-22T10:58:13;9.00;;;6.17;;
65035;SDS011;51603;49.300;8.880;2023-06-22T11:00:38;13.63;;;6.60;;
65035;SDS011;51603;49.300;8.880;2023-06-22T11:03:04;8.80;;;6.40;;
65035;SDS011;51603;49.300;8.880;2023-06-22T11:05:29;9.80;;;5.73;;
65035;SDS011;51603;49.300;8.880;2023-06-22T11:07:56;8.67;;;5.40;;
65035;SDS011;51603;49.300;8.880;2023-06-22T11:10:22;10.70;;;7.10;;
65035;SDS011;51603;49.300;8.880;2023-06-22T11:12:48;10.13;;;5.83;;
65035;SDS011;51603;49.300;8.880;2023-06-22T11:15:13;8.90;;;5.70;;
65035;SDS011;51603;49.300;8.880;2023-06-22T11:17:39;9.03;;;5.83;;
65035;SDS011;51603;49.300;8.880;2023-06-22T11:20:05;10.77;;;5.20;;
65035;SDS011;51603;49.300;8.880;2023-06-22T11:22:35;9.07;;;5.73;;
65035;SDS011;51603;49.300;8.880;2023-06-22T11:25:02;8.87;;;5.43;;
65035;SDS011;51603;49.300;8.880;2023-06-22T11:27:27;8.17;;;5.90;;
65035;SDS011;51603;49.300;8.880;2023-06-22T11:29:53;9.60;;;5.43;;
65035;SDS011;51603;49.300;8.880;2023-06-22T11:32:18;7.60;;;5.90;;
65035;SDS011;51603;49.300;8.880;2023-06-22T11:34:44;7.03;;;4.93;;
65035;SDS011;51603;49.300;8.880;2023-06-22T11:37:10;7.60;;;5.60;;
65035;SDS011;51603;49.300;8.880;2023-06-22T11:39:35;7.90;;;5.80;;
65035;SDS011;51603;49.300;8.880;2023-06-22T11:42:01;6.93;;;4.50;;
65035;SDS011;51603;49.300;8.880;2023-06-22T11:44:26;11.70;;;5.77;;
65035;SDS011;51603;49.300;8.880;2023-06-22T11:46:52;8.47;;;5.60;;
65035;SDS011;51603;49.300;8.880;2023-06-22T11:49:17;9.93;;;5.77;;
65035;SDS011;51603;49.300;8.880;2023-06-22T11:51:43;9.40;;;5.80;;
65035;SDS011;51603;49.300;8.880;2023-06-22T11:54:08;8.70;;;5.10;;
65035;SDS011;51603;49.300;8.880;2023-06-22T11:56:34;8.40;;;5.40;;
65035;SDS011;51603;49.300;8.880;2023-06-22T11:58:59;8.70;;;5.70;;
65035;SDS011;51603;49.300;8.880;2023-06-22T12:01:25;8.57;;;5.80;;
65035;SDS011;51603;49.300;8.880;2023-06-22T12:03:50;9.17;;;6.13;;
65035;SDS011;51603;49.300;8.880;2023-06-22T12:06:16;8.93;;;5.60;;
65035;SDS011;51603;49.300;8.880;2023-06-22T12:08:42;10.10;;;6.20;;
65035;SDS011;51603;49.300;8.880;2023-06-22T12:11:07;10.23;;;5.43;;
65035;SDS011;51603;49.300;8.880;2023-06-22T12:13:33;8.63;;;6.30;;
65035;SDS011;51603;49.300;8.880;2023-06-22T12:15:58;9.53;;;6.30;;
65035;SDS011;51603;49.300;8.880;2023-06-22T12:18:24;9.80;;;5.63;;
65035;SDS011;51603;49.300;8.880;2023-06-22T12:20:50;9.17;;;5.93;;
65035;SDS011;51603;49.300;8.880;2023-06-22T12:23:15;9.90;;;6.10;;
65035;SDS011;51603;49.300;8.880;2023-06-22T12:25:41;11.10;;;6.10;;
65035;SDS011;51603;49.300;8.880;2023-06-22T12:28:06;12.53;;;7.00;;
65035;SDS011;51603;49.300;8.880;2023-06-22T12:30:32;7.30;;;5.23;;
65035;SDS011;51603;49.300;8.880;2023-06-22T12:32:58;11.57;;;6.87;;
65035;SDS011;51603;49.300;8.880;2023-06-22T12:35:24;8.50;;;6.30;;
65035;SDS011;51603;49.300;8.880;2023-06-22T12:37:49;9.60;;;5.93;;
65035;SDS011;51603;49.300;8.880;2023-06-22T12:40:15;13.63;;;5.80;;
65035;SDS011;51603;49.300;8.880;2023-06-22T12:42:40;8.67;;;5.37;;
65035;SDS011;51603;49.300;8.880;2023-06-22T12:45:07;11.53;;;6.37;;
65035;SDS011;51603;49.300;8.880;2023-06-22T12:47:33;9.63;;;5.70;;
65035;SDS011;51603;49.300;8.880;2023-06-22T12:49:59;8.87;;;5.97;;
65035;SDS011;51603;49.300;8.880;2023-06-22T12:52:24;8.87;;;6.20;;
65035;SDS011;51603;49.300;8.880;2023-06-22T12:54:50;9.60;;;6.07;;
65035;SDS011;51603;49.300;8.880;2023-06-22T12:57:17;9.90;;;6.07;;
65035;SDS011;51603;49.300;8.880;2023-06-22T12:59:44;12.53;;;6.33;;
65035;SDS011;51603;49.300;8.880;2023-06-22T13:02:10;8.27;;;6.50;;
65035;SDS011;51603;49.300;8.880;2023-06-22T13:04:35;7.77;;;5.57;;
65035;SDS011;51603;49.300;8.880;2023-06-22T13:07:01;6.93;;;5.73;;
65035;SDS011;51603;49.300;8.880;2023-06-22T13:09:26;8.60;;;6.47;;
65035;SDS011;51603;49.300;8.880;2023-06-22T13:11:52;10.57;;;6.60;;
65035;SDS011;51603;49.300;8.880;2023-06-22T13:14:17;8.60;;;6.13;;
65035;SDS011;51603;49.300;8.880;2023-06-22T13:16:43;8.30;;;6.33;;
65035;SDS011;51603;49.300;8.880;2023-06-22T13:19:09;8.20;;;6.10;;
65035;SDS011;51603;49.300;8.880;2023-06-22T13:21:34;10.53;;;6.20;;
65035;SDS011;51603;49.300;8.880;2023-06-22T13:24:00;8.60;;;5.90;;
65035;SDS011;51603;49.300;8.880;2023-06-22T13:26:26;9.77;;;6.27;;
65035;SDS011;51603;49.300;8.880;2023-06-22T13:28:53;8.80;;;5.70;;
65035;SDS011;51603;49.300;8.880;2023-06-22T13:31:19;10.70;;;5.47;;
65035;SDS011;51603;49.300;8.880;2023-06-22T13:33:45;9.33;;;6.20;;
65035;SDS011;51603;49.300;8.880;2023-06-22T13:36:12;9.37;;;6.17;;
65035;SDS011;51603;49.300;8.880;2023-06-22T13:38:38;8.93;;;5.87;;
65035;SDS011;51603;49.300;8.880;2023-06-22T13:41:04;8.93;;;5.63;;
65035;SDS011;51603;49.300;8.880;2023-06-22T13:43:30;9.83;;;5.63;;
65035;SDS011;51603;49.300;8.880;2023-06-22T13:45:56;11.43;;;6.47;;
65035;SDS011;51603;49.300;8.880;2023-06-22T13:48:22;11.17;;;5.93;;
65035;SDS011;51603;49.300;8.880;2023-06-22T13:50:50;11.27;;;6.13;;
65035;SDS011;51603;49.300;8.880;2023-06-22T13:53:16;13.13;;;5.80;;
65035;SDS011;51603;49.300;8.880;2023-06-22T13:55:42;10.23;;;6.17;;
65035;SDS011;51603;49.300;8.880;2023-06-22T13:58:07;10.00;;;6.60;;
65035;SDS011;51603;49.300;8.880;2023-06-22T14:00:33;11.80;;;6.07;;
65035;SDS011;51603;49.300;8.880;2023-06-22T14:02:58;10.53;;;6.37;;
65035;SDS011;51603;49.300;8.880;2023-06-22T14:05:24;9.87;;;6.30;;
65035;SDS011;51603;49.300;8.880;2023-06-22T14:07:49;7.83;;;6.47;;
65035;SDS011;51603;49.300;8.880;2023-06-22T14:10:15;13.13;;;6.40;;
65035;SDS011;51603;49.300;8.880;2023-06-22T14:12:41;9.00;;;6.70;;
65035;SDS011;51603;49.300;8.880;2023-06-22T14:15:06;10.27;;;6.30;;
65035;SDS011;51603;49.300;8.880;2023-06-22T14:17:32;10.53;;;6.70;;
65035;SDS011;51603;49.300;8.880;2023-06-22T14:19:58;9.80;;;6.50;;
65035;SDS011;51603;49.300;8.880;2023-06-22T14:22:23;11.40;;;6.47;;
65035;SDS011;51603;49.300;8.880;2023-06-22T14:24:49;9.77;;;6.80;;
65035;SDS011;51603;49.300;8.880;2023-06-22T14:27:15;9.53;;;6.70;;
65035;SDS011;51603;49.300;8.880;2023-06-22T14:29:41;11.57;;;6.20;;
65035;SDS011;51603;49.300;8.880;2023-06-22T14:32:07;11.93;;;6.10;;
65035;SDS011;51603;49.300;8.880;2023-06-22T14:34:34;16.40;;;6.80;;
65035;SDS011;51603;49.300;8.880;2023-06-22T14:37:01;14.10;;;6.40;;